sensor_id;sensor_type;location;lat;lon;timestamp;pressure;altitude;pressure_sealevel;temperature;humidity
21547;BME280;41275;51.912;4.388;2023-05-23T00:04:24;102055.75;;;19.93;52.05
21547;BME280;41275;51.912;4.388;2023-05-23T00:09:46;102050.22;;;19.73;52.23
21547;BME280;41275;51.912;4.388;2023-05-23T00:15:08;102050.75;;;19.70;52.39
21547;BME280;41275;51.912;4.388;2023-05-23T00:20:29;102057.19;;;19.69;52.62
21547;BME280;41275;51.912;4.388;2023-05-23T00:25:51;102055.94;;;19.81;52.82
21547;BME280;41275;51.912;4.388;2023-05-23T00:31:15;102054.41;;;19.91;52.71
21547;BME280;41275;51.912;4.388;2023-05-23T00:36:37;102056.78;;;19.87;52.66
21547;BME280;41275;51.912;4.388;2023-05-23T00:42:03;102061.84;;;19.78;52.98
21547;BME280;41275;51.912;4.388;2023-05-23T00:47:24;102060.88;;;19.95;52.67
21547;BME280;41275;51.912;4.388;2023-05-23T00:52:47;102074.03;;;19.96;52.91
21547;BME280;41275;51.912;4.388;2023-05-23T00:58:09;102065.47;;;19.99;53.08
21547;BME280;41275;51.912;4.388;2023-05-23T01:03:31;102061.47;;;20.07;52.91
21547;BME280;41275;51.912;4.388;2023-05-23T01:08:52;102053.72;;;20.16;53.04
21547;BME280;41275;51.912;4.388;2023-05-23T01:14:20;102069.69;;;20.32;52.94
21547;BME280;41275;51.912;4.388;2023-05-23T01:30:51;102064.09;;;20.44;52.06
21547;BME280;41275;51.912;4.388;2023-05-23T01:36:15;102060.34;;;20.45;51.80
21547;BME280;41275;51.912;4.388;2023-05-23T01:41:36;102075.94;;;20.48;51.23
21547;BME280;41275;51.912;4.388;2023-05-23T01:46:58;102095.81;;;20.42;50.98
21547;BME280;41275;51.912;4.388;2023-05-23T01:52:19;102079.13;;;20.40;50.72
21547;BME280;41275;51.912;4.388;2023-05-23T01:57:41;102077.78;;;20.38;50.51
21547;BME280;41275;51.912;4.388;2023-05-23T02:03:03;102082.97;;;20.49;49.98
21547;BME280;41275;51.912;4.388;2023-05-23T02:08:24;102088.34;;;20.49;49.88
21547;BME280;41275;51.912;4.388;2023-05-23T02:13:45;102092.59;;;20.40;49.74
21547;BME280;41275;51.912;4.388;2023-05-23T02:19:06;102088.81;;;20.36;49.50
21547;BME280;41275;51.912;4.388;2023-05-23T02:24:27;102095.00;;;20.42;49.80
21547;BME280;41275;51.912;4.388;2023-05-23T02:29:49;102099.75;;;20.24;49.26
21547;BME280;41275;51.912;4.388;2023-05-23T02:35:10;102115.34;;;20.27;49.25
21547;BME280;41275;51.912;4.388;2023-05-23T02:40:31;102116.41;;;20.21;48.91
21547;BME280;41275;51.912;4.388;2023-05-23T02:45:53;102119.63;;;20.23;49.17
21547;BME280;41275;51.912;4.388;2023-05-23T02:51:14;102117.50;;;20.25;49.13
21547;BME280;41275;51.912;4.388;2023-05-23T02:56:35;102126.63;;;20.24;48.79
21547;BME280;41275;51.912;4.388;2023-05-23T03:01:57;102135.19;;;20.16;49.18
21547;BME280;41275;51.912;4.388;2023-05-23T03:07:18;102135.41;;;20.09;48.89
21547;BME280;41275;51.912;4.388;2023-05-23T03:12:39;102121.09;;;20.04;48.99
21547;BME280;41275;51.912;4.388;2023-05-23T03:18:00;102137.00;;;20.10;49.19
21547;BME280;41275;51.912;4.388;2023-05-23T03:23:22;102137.47;;;19.97;49.04
21547;BME280;41275;51.912;4.388;2023-05-23T03:28:43;102131.41;;;19.80;49.47
21547;BME280;41275;51.912;4.388;2023-05-23T03:34:04;102143.69;;;19.71;49.24
21547;BME280;41275;51.912;4.388;2023-05-23T03:39:25;102139.63;;;19.68;49.19
21547;BME280;41275;51.912;4.388;2023-05-23T03:44:47;102151.75;;;19.71;48.64
21547;BME280;41275;51.912;4.388;2023-05-23T03:50:08;102154.13;;;19.67;48.54
21547;BME280;41275;51.912;4.388;2023-05-23T03:55:30;102158.06;;;19.59;48.40
21547;BME280;41275;51.912;4.388;2023-05-23T04:00:52;102161.66;;;19.65;47.84
21547;BME280;41275;51.912;4.388;2023-05-23T04:06:14;102166.44;;;19.63;47.84
21547;BME280;41275;51.912;4.388;2023-05-23T04:11:37;102177.88;;;19.80;47.54
21547;BME280;41275;51.912;4.388;2023-05-23T04:16:58;102182.66;;;19.73;47.25
21547;BME280;41275;51.912;4.388;2023-05-23T04:22:20;102187.78;;;19.53;47.15
21547;BME280;41275;51.912;4.388;2023-05-23T04:27:42;102190.28;;;19.59;47.04
21547;BME280;41275;51.912;4.388;2023-05-23T04:33:03;102196.47;;;19.60;46.28
21547;BME280;41275;51.912;4.388;2023-05-23T04:38:24;102198.66;;;19.63;46.23
21547;BME280;41275;51.912;4.388;2023-05-23T04:43:45;102210.97;;;19.59;46.18
21547;BME280;41275;51.912;4.388;2023-05-23T04:49:07;102212.66;;;19.43;46.41
21547;BME280;41275;51.912;4.388;2023-05-23T04:54:28;102216.41;;;19.42;46.29
21547;BME280;41275;51.912;4.388;2023-05-23T04:59:50;102228.13;;;19.58;45.52
21547;BME280;41275;51.912;4.388;2023-05-23T05:05:11;102225.25;;;19.65;45.36
21547;BME280;41275;51.912;4.388;2023-05-23T05:10:32;102245.28;;;19.57;45.21
21547;BME280;41275;51.912;4.388;2023-05-23T05:15:53;102240.13;;;19.50;45.35
21547;BME280;41275;51.912;4.388;2023-05-23T05:21:15;102234.94;;;19.44;45.44
21547;BME280;41275;51.912;4.388;2023-05-23T05:26:36;102257.19;;;19.61;45.04
21547;BME280;41275;51.912;4.388;2023-05-23T05:31:57;102265.53;;;19.86;45.12
21547;BME280;41275;51.912;4.388;2023-05-23T05:37:18;102263.09;;;19.85;44.12
21547;BME280;41275;51.912;4.388;2023-05-23T05:42:39;102254.56;;;20.20;44.12
21547;BME280;41275;51.912;4.388;2023-05-23T05:48:02;102265.31;;;20.20;43.90
21547;BME280;41275;51.912;4.388;2023-05-23T05:53:24;102258.06;;;19.94;44.07
21547;BME280;41275;51.912;4.388;2023-05-23T05:58:45;102268.19;;;19.86;44.40
21547;BME280;41275;51.912;4.388;2023-05-23T06:04:06;102263.59;;;19.82;44.55
21547;BME280;41275;51.912;4.388;2023-05-23T06:09:27;102272.28;;;19.89;44.63
21547;BME280;41275;51.912;4.388;2023-05-23T06:14:49;102277.94;;;19.93;45.09
21547;BME280;41275;51.912;4.388;2023-05-23T06:20:10;102290.84;;;19.96;45.48
21547;BME280;41275;51.912;4.388;2023-05-23T06:25:32;102292.44;;;19.92;45.45
21547;BME280;41275;51.912;4.388;2023-05-23T06:30:53;102305.00;;;19.86;45.84
21547;BME280;41275;51.912;4.388;2023-05-23T06:36:14;102293.50;;;19.91;45.81
21547;BME280;41275;51.912;4.388;2023-05-23T06:41:35;102308.34;;;19.98;45.93
21547;BME280;41275;51.912;4.388;2023-05-23T06:46:57;102297.00;;;19.91;45.34
21547;BME280;41275;51.912;4.388;2023-05-23T06:52:18;102309.00;;;20.10;44.57
21547;BME280;41275;51.912;4.388;2023-05-23T06:57:39;102308.69;;;20.07;43.70
21547;BME280;41275;51.912;4.388;2023-05-23T07:03:01;102310.78;;;20.27;43.14
21547;BME280;41275;51.912;4.388;2023-05-23T07:08:23;102316.72;;;20.29;42.41
21547;BME280;41275;51.912;4.388;2023-05-23T07:13:44;102308.41;;;20.35;42.21
21547;BME280;41275;51.912;4.388;2023-05-23T07:19:06;102317.31;;;20.36;41.48
21547;BME280;41275;51.912;4.388;2023-05-23T07:24:27;102324.84;;;21.03;40.71
21547;BME280;41275;51.912;4.388;2023-05-23T07:29:48;102328.28;;;21.41;39.95
21547;BME280;41275;51.912;4.388;2023-05-23T07:35:10;102328.66;;;21.18;40.29
21547;BME280;41275;51.912;4.388;2023-05-23T07:40:32;102318.47;;;21.77;39.47
21547;BME280;41275;51.912;4.388;2023-05-23T07:45:53;102333.34;;;22.11;38.37
21547;BME280;41275;51.912;4.388;2023-05-23T07:51:14;102339.84;;;22.15;38.12
21547;BME280;41275;51.912;4.388;2023-05-23T07:56:35;102324.75;;;22.85;37.15
21547;BME280;41275;51.912;4.388;2023-05-23T08:01:58;102347.72;;;22.37;37.07
21547;BME280;41275;51.912;4.388;2023-05-23T08:07:19;102356.09;;;22.61;36.79
21547;BME280;41275;51.912;4.388;2023-05-23T08:12:41;102337.19;;;22.76;36.33
21547;BME280;41275;51.912;4.388;2023-05-23T08:18:03;102349.06;;;22.80;36.01
21547;BME280;41275;51.912;4.388;2023-05-23T08:23:24;102361.66;;;23.25;35.72
21547;BME280;41275;51.912;4.388;2023-05-23T08:28:46;102364.16;;;22.81;36.01
21547;BME280;41275;51.912;4.388;2023-05-23T08:34:07;102367.41;;;22.47;36.40
21547;BME280;41275;51.912;4.388;2023-05-23T08:39:28;102363.63;;;22.38;36.36
21547;BME280;41275;51.912;4.388;2023-05-23T08:44:49;102374.94;;;22.35;35.92
21547;BME280;41275;51.912;4.388;2023-05-23T08:50:12;102370.66;;;22.49;35.97
21547;BME280;41275;51.912;4.388;2023-05-23T08:55:36;102374.84;;;22.04;36.13
21547;BME280;41275;51.912;4.388;2023-05-23T09:00:58;102386.69;;;21.93;36.13
21547;BME280;41275;51.912;4.388;2023-05-23T09:06:20;102397.31;;;22.36;36.08
21547;BME280;41275;51.912;4.388;2023-05-23T09:11:41;102401.94;;;22.81;35.50
21547;BME280;41275;51.912;4.388;2023-05-23T09:17:05;102406.00;;;23.19;34.66
21547;BME280;41275;51.912;4.388;2023-05-23T09:22:27;102397.19;;;23.79;33.95
21547;BME280;41275;51.912;4.388;2023-05-23T09:27:51;102415.47;;;22.96;34.09
21547;BME280;41275;51.912;4.388;2023-05-23T09:33:13;102414.06;;;23.35;34.34
21547;BME280;41275;51.912;4.388;2023-05-23T09:38:39;102418.69;;;23.24;33.58
21547;BME280;41275;51.912;4.388;2023-05-23T09:44:07;102411.56;;;23.53;33.57
21547;BME280;41275;51.912;4.388;2023-05-23T09:49:29;102414.31;;;23.33;33.51
21547;BME280;41275;51.912;4.388;2023-05-23T09:54:50;102416.50;;;23.26;33.56
21547;BME280;41275;51.912;4.388;2023-05-23T10:00:12;102420.31;;;23.15;33.78
21547;BME280;41275;51.912;4.388;2023-05-23T10:05:43;102429.72;;;23.38;33.33
21547;BME280;41275;51.912;4.388;2023-05-23T10:17:05;102428.69;;;23.23;33.15
21547;BME280;41275;51.912;4.388;2023-05-23T10:22:27;102434.03;;;23.34;32.52
21547;BME280;41275;51.912;4.388;2023-05-23T10:27:52;102425.31;;;23.72;32.42
21547;BME280;41275;51.912;4.388;2023-05-23T10:33:14;102446.91;;;24.42;31.86
21547;BME280;41275;51.912;4.388;2023-05-23T10:38:41;102447.53;;;23.44;33.06
21547;BME280;41275;51.912;4.388;2023-05-23T10:44:12;102453.78;;;23.14;33.58
21547;BME280;41275;51.912;4.388;2023-05-23T10:49:37;102453.53;;;23.31;33.54
21547;BME280;41275;51.912;4.388;2023-05-23T10:54:59;102452.72;;;23.10;34.07
21547;BME280;41275;51.912;4.388;2023-05-23T11:00:22;102453.50;;;23.25;33.50
21547;BME280;41275;51.912;4.388;2023-05-23T11:05:51;102454.22;;;24.37;32.42
21547;BME280;41275;51.912;4.388;2023-05-23T11:11:12;102443.94;;;24.39;31.55
21547;BME280;41275;51.912;4.388;2023-05-23T11:16:41;102455.66;;;24.19;31.73
21547;BME280;41275;51.912;4.388;2023-05-23T11:22:03;102458.03;;;24.31;31.11
21547;BME280;41275;51.912;4.388;2023-05-23T11:27:30;102456.53;;;24.09;30.79
21547;BME280;41275;51.912;4.388;2023-05-23T11:32:53;102454.78;;;24.29;30.19
21547;BME280;41275;51.912;4.388;2023-05-23T11:38:17;102461.78;;;24.45;30.20
21547;BME280;41275;51.912;4.388;2023-05-23T11:43:50;102466.59;;;24.48;30.27
21547;BME280;41275;51.912;4.388;2023-05-23T11:49:11;102464.84;;;24.72;30.30
21547;BME280;41275;51.912;4.388;2023-05-23T11:54:33;102468.00;;;24.80;29.91
21547;BME280;41275;51.912;4.388;2023-05-23T11:59:54;102469.19;;;24.68;30.65
21547;BME280;41275;51.912;4.388;2023-05-23T12:05:16;102458.88;;;24.70;30.29
21547;BME280;41275;51.912;4.388;2023-05-23T12:10:48;102465.78;;;24.92;29.72
21547;BME280;41275;51.912;4.388;2023-05-23T12:16:11;102467.31;;;25.32;29.47
21547;BME280;41275;51.912;4.388;2023-05-23T12:21:43;102468.03;;;25.14;29.50
21547;BME280;41275;51.912;4.388;2023-05-23T12:27:05;102473.88;;;26.03;28.31
21547;BME280;41275;51.912;4.388;2023-05-23T12:32:27;102473.63;;;25.52;29.67
21547;BME280;41275;51.912;4.388;2023-05-23T12:37:51;102471.94;;;26.04;29.33
21547;BME280;41275;51.912;4.388;2023-05-23T12:43:14;102457.47;;;26.51;28.56
21547;BME280;41275;51.912;4.388;2023-05-23T12:48:35;102466.16;;;27.19;28.27
21547;BME280;41275;51.912;4.388;2023-05-23T12:53:57;102468.50;;;28.58;25.86
21547;BME280;41275;51.912;4.388;2023-05-23T12:59:18;102477.19;;;27.82;26.17
21547;BME280;41275;51.912;4.388;2023-05-23T13:04:40;102469.19;;;28.13;25.56
21547;BME280;41275;51.912;4.388;2023-05-23T13:10:01;102470.16;;;28.31;24.64
21547;BME280;41275;51.912;4.388;2023-05-23T13:15:22;102469.41;;;29.21;23.50
21547;BME280;41275;51.912;4.388;2023-05-23T13:20:43;102483.59;;;28.64;24.33
21547;BME280;41275;51.912;4.388;2023-05-23T13:26:05;102465.75;;;29.34;23.99
21547;BME280;41275;51.912;4.388;2023-05-23T13:31:27;102472.44;;;30.60;22.74
21547;BME280;41275;51.912;4.388;2023-05-23T13:36:49;102467.88;;;29.46;22.55
21547;BME280;41275;51.912;4.388;2023-05-23T13:42:10;102461.25;;;29.61;22.97
21547;BME280;41275;51.912;4.388;2023-05-23T13:47:31;102475.72;;;29.78;22.63
21547;BME280;41275;51.912;4.388;2023-05-23T13:52:52;102480.06;;;29.79;21.95
21547;BME280;41275;51.912;4.388;2023-05-23T13:58:14;102495.41;;;29.58;22.19
21547;BME280;41275;51.912;4.388;2023-05-23T14:03:35;102476.00;;;29.59;22.81
21547;BME280;41275;51.912;4.388;2023-05-23T14:08:56;102475.19;;;29.59;22.32
21547;BME280;41275;51.912;4.388;2023-05-23T14:14:17;102477.75;;;29.24;22.32
21547;BME280;41275;51.912;4.388;2023-05-23T14:19:39;102478.72;;;28.75;22.24
21547;BME280;41275;51.912;4.388;2023-05-23T14:25:00;102468.63;;;29.29;21.79
21547;BME280;41275;51.912;4.388;2023-05-23T14:30:21;102472.75;;;30.15;21.44
21547;BME280;41275;51.912;4.388;2023-05-23T14:35:42;102471.25;;;31.04;20.47
21547;BME280;41275;51.912;4.388;2023-05-23T14:41:04;102470.75;;;31.11;19.37
21547;BME280;41275;51.912;4.388;2023-05-23T14:46:25;102481.19;;;31.56;19.00
21547;BME280;41275;51.912;4.388;2023-05-23T14:51:46;102465.72;;;32.19;19.36
21547;BME280;41275;51.912;4.388;2023-05-23T14:57:08;102477.72;;;32.26;19.11
21547;BME280;41275;51.912;4.388;2023-05-23T15:02:30;102481.28;;;32.27;18.95
21547;BME280;41275;51.912;4.388;2023-05-23T15:07:51;102476.41;;;32.12;19.07
21547;BME280;41275;51.912;4.388;2023-05-23T15:13:13;102482.38;;;31.46;19.39
21547;BME280;41275;51.912;4.388;2023-05-23T15:18:34;102478.16;;;31.57;19.93
21547;BME280;41275;51.912;4.388;2023-05-23T15:23:55;102489.06;;;31.95;19.53
21547;BME280;41275;51.912;4.388;2023-05-23T15:29:17;102488.59;;;32.14;19.03
21547;BME280;41275;51.912;4.388;2023-05-23T15:34:38;102480.72;;;31.92;19.67
21547;BME280;41275;51.912;4.388;2023-05-23T15:40:00;102472.22;;;32.26;19.25
21547;BME280;41275;51.912;4.388;2023-05-23T15:45:22;102495.63;;;32.45;18.97
21547;BME280;41275;51.912;4.388;2023-05-23T15:50:43;102486.97;;;31.16;19.88
21547;BME280;41275;51.912;4.388;2023-05-23T15:56:05;102487.56;;;31.39;19.87
21547;BME280;41275;51.912;4.388;2023-05-23T16:01:26;102500.25;;;30.62;20.15
21547;BME280;41275;51.912;4.388;2023-05-23T16:06:48;102497.69;;;30.83;20.06
21547;BME280;41275;51.912;4.388;2023-05-23T16:12:12;102493.75;;;30.05;20.25
21547;BME280;41275;51.912;4.388;2023-05-23T16:17:33;102503.09;;;29.56;20.92
21547;BME280;41275;51.912;4.388;2023-05-23T16:22:54;102491.69;;;27.36;23.41
21547;BME280;41275;51.912;4.388;2023-05-23T16:28:16;102489.88;;;29.49;21.58
21547;BME280;41275;51.912;4.388;2023-05-23T16:33:38;102492.19;;;30.91;20.47
21547;BME280;41275;51.912;4.388;2023-05-23T16:38:59;102475.56;;;31.61;19.43
21547;BME280;41275;51.912;4.388;2023-05-23T16:44:20;102481.59;;;30.72;19.30
21547;BME280;41275;51.912;4.388;2023-05-23T16:49:41;102477.75;;;30.47;20.24
21547;BME280;41275;51.912;4.388;2023-05-23T16:55:03;102477.44;;;31.39;19.92
21547;BME280;41275;51.912;4.388;2023-05-23T17:00:25;102467.19;;;31.95;19.53
21547;BME280;41275;51.912;4.388;2023-05-23T17:05:46;102468.88;;;30.94;19.61
21547;BME280;41275;51.912;4.388;2023-05-23T17:11:07;102471.47;;;30.29;20.06
21547;BME280;41275;51.912;4.388;2023-05-23T17:16:28;102468.25;;;30.71;19.99
21547;BME280;41275;51.912;4.388;2023-05-23T17:21:52;102479.69;;;30.38;20.67
21547;BME280;41275;51.912;4.388;2023-05-23T17:27:14;102481.97;;;29.70;20.59
21547;BME280;41275;51.912;4.388;2023-05-23T17:32:35;102493.25;;;29.46;20.82
21547;BME280;41275;51.912;4.388;2023-05-23T17:37:56;102478.25;;;29.35;21.19
21547;BME280;41275;51.912;4.388;2023-05-23T17:43:18;102497.91;;;29.54;20.64
21547;BME280;41275;51.912;4.388;2023-05-23T17:48:39;102477.47;;;29.03;21.24
21547;BME280;41275;51.912;4.388;2023-05-23T17:54:00;102506.34;;;29.04;21.55
21547;BME280;41275;51.912;4.388;2023-05-23T17:59:24;102499.94;;;28.86;21.47
21547;BME280;41275;51.912;4.388;2023-05-23T18:04:47;102502.13;;;28.53;22.50
21547;BME280;41275;51.912;4.388;2023-05-23T18:10:08;102503.06;;;29.16;21.84
21547;BME280;41275;51.912;4.388;2023-05-23T18:15:30;102505.72;;;28.49;22.45
21547;BME280;41275;51.912;4.388;2023-05-23T18:20:51;102508.81;;;28.20;22.47
21547;BME280;41275;51.912;4.388;2023-05-23T18:26:12;102501.78;;;27.63;23.28
21547;BME280;41275;51.912;4.388;2023-05-23T18:31:34;102500.84;;;27.40;23.28
21547;BME280;41275;51.912;4.388;2023-05-23T18:36:55;102494.72;;;26.64;24.42
21547;BME280;41275;51.912;4.388;2023-05-23T18:42:16;102490.88;;;24.63;26.42
21547;BME280;41275;51.912;4.388;2023-05-23T18:47:37;102491.59;;;22.93;29.10
21547;BME280;41275;51.912;4.388;2023-05-23T18:52:58;102495.94;;;22.11;30.19
21547;BME280;41275;51.912;4.388;2023-05-23T18:58:20;102503.75;;;21.60;31.12
21547;BME280;41275;51.912;4.388;2023-05-23T19:03:41;102515.38;;;21.01;32.00
21547;BME280;41275;51.912;4.388;2023-05-23T19:09:04;102524.78;;;20.72;32.77
21547;BME280;41275;51.912;4.388;2023-05-23T19:14:29;102529.19;;;20.56;33.10
21547;BME280;41275;51.912;4.388;2023-05-23T19:19:50;102537.53;;;20.38;33.80
21547;BME280;41275;51.912;4.388;2023-05-23T19:25:12;102529.28;;;20.00;34.44
21547;BME280;41275;51.912;4.388;2023-05-23T19:30:34;102530.44;;;19.71;35.32
21547;BME280;41275;51.912;4.388;2023-05-23T19:35:55;102541.25;;;19.59;35.56
21547;BME280;41275;51.912;4.388;2023-05-23T19:41:17;102543.84;;;19.37;36.39
21547;BME280;41275;51.912;4.388;2023-05-23T19:46:38;102548.47;;;19.25;36.59
21547;BME280;41275;51.912;4.388;2023-05-23T19:51:59;102554.88;;;19.07;37.04
21547;BME280;41275;51.912;4.388;2023-05-23T19:57:20;102560.41;;;19.00;37.42
21547;BME280;41275;51.912;4.388;2023-05-23T20:02:42;102569.16;;;18.96;37.62
21547;BME280;41275;51.912;4.388;2023-05-23T20:08:04;102577.94;;;18.91;37.91
21547;BME280;41275;51.912;4.388;2023-05-23T20:13:25;102568.78;;;18.75;38.21
21547;BME280;41275;51.912;4.388;2023-05-23T20:18:47;102583.34;;;18.68;38.41
21547;BME280;41275;51.912;4.388;2023-05-23T20:24:11;102563.94;;;18.49;38.35
21547;BME280;41275;51.912;4.388;2023-05-23T20:29:34;102567.75;;;18.53;38.84
21547;BME280;41275;51.912;4.388;2023-05-23T20:34:56;102554.63;;;18.51;38.93
21547;BME280;41275;51.912;4.388;2023-05-23T20:40:18;102547.03;;;18.48;38.49
21547;BME280;41275;51.912;4.388;2023-05-23T20:45:49;102555.44;;;18.40;38.99
21547;BME280;41275;51.912;4.388;2023-05-23T20:51:10;102564.31;;;18.29;39.47
21547;BME280;41275;51.912;4.388;2023-05-23T20:56:32;102564.09;;;18.19;39.40
21547;BME280;41275;51.912;4.388;2023-05-23T21:01:53;102562.13;;;18.14;39.75
21547;BME280;41275;51.912;4.388;2023-05-23T21:07:14;102552.69;;;18.11;39.64
21547;BME280;41275;51.912;4.388;2023-05-23T21:12:36;102558.38;;;18.15;39.99
21547;BME280;41275;51.912;4.388;2023-05-23T21:17:57;102547.47;;;18.05;40.11
21547;BME280;41275;51.912;4.388;2023-05-23T21:23:18;102549.34;;;18.04;40.61
21547;BME280;41275;51.912;4.388;2023-05-23T21:28:40;102550.25;;;17.98;40.68
21547;BME280;41275;51.912;4.388;2023-05-23T21:34:01;102555.97;;;18.02;40.71
21547;BME280;41275;51.912;4.388;2023-05-23T21:39:22;102558.41;;;18.03;41.01
21547;BME280;41275;51.912;4.388;2023-05-23T21:44:44;102553.88;;;18.04;41.07
21547;BME280;41275;51.912;4.388;2023-05-23T21:50:05;102566.56;;;17.97;40.86
21547;BME280;41275;51.912;4.388;2023-05-23T21:55:27;102565.25;;;17.87;41.25
21547;BME280;41275;51.912;4.388;2023-05-23T22:00:48;102554.56;;;17.87;41.83
21547;BME280;41275;51.912;4.388;2023-05-23T22:06:09;102557.72;;;17.84;41.63
21547;BME280;41275;51.912;4.388;2023-05-23T22:11:30;102563.06;;;17.84;42.07
21547;BME280;41275;51.912;4.388;2023-05-23T22:16:53;102551.41;;;17.79;41.97
21547;BME280;41275;51.912;4.388;2023-05-23T22:22:15;102542.22;;;17.75;42.22
21547;BME280;41275;51.912;4.388;2023-05-23T22:27:37;102552.78;;;17.70;42.04
21547;BME280;41275;51.912;4.388;2023-05-23T22:32:58;102543.13;;;17.57;42.44
21547;BME280;41275;51.912;4.388;2023-05-23T22:38:21;102556.72;;;17.55;42.33
21547;BME280;41275;51.912;4.388;2023-05-23T22:43:42;102558.00;;;17.53;42.42
21547;BME280;41275;51.912;4.388;2023-05-23T22:49:04;102547.50;;;17.51;42.56
21547;BME280;41275;51.912;4.388;2023-05-23T22:54:25;102553.31;;;17.48;42.87
21547;BME280;41275;51.912;4.388;2023-05-23T22:59:46;102551.59;;;17.42;42.94
21547;BME280;41275;51.912;4.388;2023-05-23T23:05:07;102541.81;;;17.48;42.91
21547;BME280;41275;51.912;4.388;2023-05-23T23:10:31;102533.41;;;17.44;42.75
21547;BME280;41275;51.912;4.388;2023-05-23T23:15:52;102544.81;;;17.39;42.88
21547;BME280;41275;51.912;4.388;2023-05-23T23:21:14;102552.03;;;17.39;43.20
21547;BME280;41275;51.912;4.388;2023-05-23T23:26:36;102546.22;;;17.30;43.05
21547;BME280;41275;51.912;4.388;2023-05-23T23:31:57;102554.13;;;17.25;43.46
21547;BME280;41275;51.912;4.388;2023-05-23T23:37:19;102554.44;;;17.29;43.19
21547;BME280;41275;51.912;4.388;2023-05-23T23:42:40;102544.88;;;17.21;44.03
21547;BME280;41275;51.912;4.388;2023-05-23T23:48:02;102542.34;;;17.26;43.29
21547;BME280;41275;51.912;4.388;2023-05-23T23:53:23;102537.38;;;17.30;43.84
21547;BME280;41275;51.912;4.388;2023-05-23T23:58:44;102529.91;;;17.32;43.72
